createdAt,value
2019-04-27T00:02:43.684Z,17.32
2019-04-27T00:05:35.498Z,14.43
2019-04-27T00:08:35.125Z,19.35
2019-04-27T00:11:13.655Z,14.95
2019-04-27T00:13:46.168Z,16.02
2019-04-27T00:16:35.496Z,15.08
2019-04-27T00:19:27.279Z,17.87
2019-04-27T00:22:20.579Z,14.75
2019-04-27T00:24:53.182Z,25.57
2019-04-27T00:27:25.225Z,15.75
2019-04-27T00:29:57.084Z,24.18
2019-04-27T00:32:28.847Z,20.27
2019-04-27T00:35:00.696Z,16.42
2019-04-27T00:37:46.344Z,21.95
2019-04-27T00:40:23.549Z,17.80
2019-04-27T00:42:55.803Z,14.98
2019-04-27T00:45:27.524Z,13.55
2019-04-27T00:47:59.897Z,20.25
2019-04-27T00:50:33.807Z,12.03
2019-04-27T00:53:05.792Z,16.32
2019-04-27T00:55:43.469Z,20.40
2019-04-27T00:58:23.823Z,18.85
2019-04-27T01:01:20.415Z,16.40
2019-04-27T01:03:58.328Z,15.23
2019-04-27T01:06:30.059Z,17.05
2019-04-27T01:09:03.514Z,21.60
2019-04-27T01:11:37.257Z,15.53
2019-04-27T01:14:08.990Z,16.17
2019-04-27T01:19:13.382Z,14.45
2019-04-27T01:20:34.567Z,13.80
2019-04-27T01:24:54.815Z,16.48
2019-04-27T01:26:18.501Z,16.48
2019-04-27T01:28:55.320Z,17.05
2019-04-27T01:31:27.096Z,13.68
2019-04-27T01:33:59.081Z,16.17
2019-04-27T01:36:30.918Z,16.32
2019-04-27T01:46:12.767Z,15.43
2019-04-27T01:48:23.814Z,18.65
2019-04-27T01:48:44.516Z,19.10
2019-04-27T01:51:16.246Z,11.85
2019-04-27T01:53:49.194Z,18.70
2019-04-27T01:56:29.369Z,15.15
2019-04-27T01:59:01.419Z,12.78
2019-04-27T02:09:39.033Z,17.45
2019-04-27T02:12:10.761Z,13.08
2019-04-27T02:14:42.549Z,15.00
2019-04-27T02:17:14.295Z,15.00
2019-04-27T02:19:46.034Z,16.00
2019-04-27T02:22:18.715Z,11.28
2019-04-27T02:24:50.623Z,19.17
2019-04-27T02:27:24.016Z,16.42
2019-04-27T02:30:20.780Z,11.18
2019-04-27T02:33:12.713Z,13.15
2019-04-27T02:35:46.460Z,16.70
2019-04-27T02:38:20.171Z,17.37
2019-04-27T02:40:54.693Z,18.50
2019-04-27T02:43:49.763Z,17.98
2019-04-27T02:46:21.838Z,16.48
2019-04-27T02:49:00.343Z,16.45
2019-04-27T02:51:59.492Z,14.23
2019-04-27T02:54:31.430Z,16.52
2019-04-27T02:57:03.906Z,16.15
2019-04-27T02:59:35.661Z,11.85
2019-04-27T03:02:19.420Z,20.77
2019-04-27T03:04:50.764Z,16.30
2019-04-27T03:07:22.584Z,16.42
2019-04-27T03:09:54.329Z,13.72
2019-04-27T03:12:29.725Z,11.43
2019-04-27T03:15:10.499Z,14.95
2019-04-27T03:18:10.202Z,21.62
2019-04-27T03:21:00.423Z,15.03
2019-04-27T03:23:32.399Z,12.93
2019-04-27T03:26:25.887Z,13.32
2019-04-27T03:28:59.884Z,17.65
2019-04-27T03:31:32.668Z,21.95
2019-04-27T03:34:05.752Z,14.15
2019-04-27T03:36:39.522Z,13.00
2019-04-27T03:39:11.535Z,15.05
2019-04-27T03:41:45.099Z,17.23
2019-04-27T03:44:19.084Z,14.15
2019-04-27T03:46:50.626Z,16.02
2019-04-27T03:49:34.512Z,15.90
2019-04-27T03:52:10.503Z,14.90
2019-04-27T03:54:53.484Z,11.68
2019-04-27T03:57:43.142Z,18.80
2019-04-27T04:00:20.439Z,17.20
2019-04-27T04:02:52.212Z,18.50
2019-04-27T04:05:23.940Z,17.05
2019-04-27T04:07:55.757Z,18.45
2019-04-27T04:10:29.336Z,12.73
2019-04-27T04:13:22.654Z,18.62
2019-04-27T04:16:20.200Z,14.40
2019-04-27T04:19:01.117Z,20.72
2019-04-27T04:21:33.018Z,15.32
2019-04-27T04:24:05.091Z,17.35
2019-04-27T04:26:36.820Z,16.85
2019-04-27T04:29:10.225Z,14.80
2019-04-27T04:31:42.126Z,18.30
2019-04-27T04:34:13.897Z,16.82
2019-04-27T04:36:45.653Z,14.15
2019-04-27T04:39:19.624Z,16.55
2019-04-27T04:42:19.783Z,19.87
2019-04-27T04:45:00.862Z,16.62
2019-04-27T04:48:10.812Z,19.95
2019-04-27T04:50:43.544Z,19.57
2019-04-27T04:53:15.291Z,17.52
2019-04-27T04:55:48.925Z,17.80
2019-04-27T04:58:21.197Z,17.60
2019-04-27T05:00:53.163Z,20.62
2019-04-27T05:03:25.153Z,19.90
2019-04-27T05:05:58.798Z,19.00
2019-04-27T05:08:30.892Z,17.67
2019-04-27T05:11:02.626Z,17.02
2019-04-27T05:13:34.762Z,19.02
2019-04-27T05:16:06.497Z,14.10
2019-04-27T05:18:39.381Z,13.22
2019-04-27T05:21:31.839Z,15.50
2019-04-27T05:24:03.585Z,13.25
2019-04-27T05:26:35.667Z,15.58
2019-04-27T05:29:09.043Z,16.42
2019-04-27T05:31:41.003Z,14.10
2019-04-27T05:34:12.759Z,14.25
2019-04-27T05:36:48.557Z,11.40
2019-04-27T05:39:24.688Z,15.23
2019-04-27T05:41:51.745Z,18.15
2019-04-27T05:44:34.663Z,12.95
2019-04-27T05:47:25.196Z,17.32
2019-04-27T05:50:22.120Z,16.40
2019-04-27T05:52:55.719Z,17.75
2019-04-27T05:55:29.131Z,13.72
2019-04-27T05:58:02.916Z,20.02
2019-04-27T06:00:34.770Z,16.95
2019-04-27T06:03:06.583Z,18.40
2019-04-27T06:05:39.143Z,14.63
2019-04-27T06:08:11.030Z,22.40
2019-04-27T06:10:42.761Z,13.95
2019-04-27T06:13:14.523Z,18.60
2019-04-27T06:15:46.263Z,13.38
2019-04-27T06:18:19.030Z,15.08
2019-04-27T06:20:55.747Z,16.62
2019-04-27T06:23:24.897Z,14.95
2019-04-27T06:25:57.937Z,13.43
2019-04-27T06:28:32.607Z,11.33
2019-04-27T06:31:04.405Z,12.30
2019-04-27T06:33:36.126Z,11.63
2019-04-27T06:36:09.861Z,14.93
2019-04-27T06:38:41.307Z,14.55
2019-04-27T06:41:13.066Z,13.03
2019-04-27T06:43:44.838Z,18.85
2019-04-27T06:46:17.900Z,10.85
2019-04-27T06:48:49.702Z,16.50
2019-04-27T06:51:21.599Z,17.12
2019-04-27T06:53:55.677Z,13.18
2019-04-27T06:56:28.702Z,15.50
2019-04-27T06:59:01.889Z,16.97
2019-04-27T07:01:33.635Z,15.40
2019-04-27T07:04:05.397Z,15.55
2019-04-27T07:06:37.136Z,16.00
2019-04-27T07:09:09.927Z,13.95
2019-04-27T07:11:41.714Z,12.53
2019-04-27T07:14:13.446Z,14.70
2019-04-27T07:16:48.812Z,16.07
2019-04-27T07:19:20.923Z,14.23
2019-04-27T07:21:52.691Z,14.07
2019-04-27T07:24:24.858Z,16.20
2019-04-27T07:26:56.616Z,13.70
2019-04-27T07:29:29.245Z,13.38
2019-04-27T07:32:01.297Z,15.45
2019-04-27T07:34:33.024Z,14.45
2019-04-27T07:37:05.004Z,14.28
2019-04-27T07:39:36.832Z,13.13
2019-04-27T07:42:08.680Z,12.23
2019-04-27T07:44:51.090Z,15.20
2019-04-27T07:47:24.824Z,15.55
2019-04-27T07:49:56.646Z,12.58
2019-04-27T07:52:28.744Z,11.90
2019-04-27T07:55:00.542Z,10.43
2019-04-27T07:57:32.308Z,14.78
2019-04-27T08:00:04.161Z,13.93
2019-04-27T08:02:36.456Z,13.53
2019-04-27T08:05:09.354Z,15.20
2019-04-27T08:07:41.473Z,10.75
2019-04-27T08:10:14.544Z,8.93
2019-04-27T08:12:46.352Z,11.22
2019-04-27T08:15:18.949Z,13.93
2019-04-27T08:17:51.122Z,14.33
2019-04-27T08:20:22.956Z,11.97
2019-04-27T08:22:55.840Z,17.15
2019-04-27T08:25:28.733Z,11.05
2019-04-27T08:28:10.847Z,15.50
2019-04-27T08:31:04.609Z,13.08
2019-04-27T08:33:38.826Z,8.33
2019-04-27T08:36:10.620Z,8.70
2019-04-27T08:38:42.986Z,12.78
2019-04-27T08:41:14.784Z,9.53
2019-04-27T08:43:46.695Z,12.23
2019-04-27T08:46:18.780Z,13.20
2019-04-27T08:48:50.509Z,11.60
2019-04-27T08:51:22.297Z,12.53
2019-04-27T08:53:55.926Z,10.32
2019-04-27T08:56:27.717Z,10.32
2019-04-27T08:58:59.857Z,9.10
2019-04-27T09:01:31.617Z,9.00
2019-04-27T09:04:03.473Z,10.95
2019-04-27T09:06:39.342Z,8.98
2019-04-27T09:09:16.829Z,12.25
2019-04-27T09:11:54.477Z,13.10
2019-04-27T09:14:45.232Z,12.25
2019-04-27T09:17:24.539Z,8.58
2019-04-27T09:20:04.534Z,9.18
2019-04-27T09:22:36.353Z,8.80
2019-04-27T09:25:09.395Z,8.50
2019-04-27T09:27:41.148Z,9.48
2019-04-27T09:30:13.063Z,10.70
2019-04-27T09:32:44.823Z,14.65
2019-04-27T09:35:16.546Z,8.43
2019-04-27T09:37:48.321Z,11.15
2019-04-27T09:40:20.064Z,8.15
2019-04-27T09:42:57.253Z,8.80
2019-04-27T09:45:30.415Z,9.53
2019-04-27T09:48:03.898Z,7.72
2019-04-27T09:50:36.108Z,9.50
2019-04-27T09:53:08.104Z,8.08
2019-04-27T09:55:40.928Z,8.15
2019-04-27T09:58:12.748Z,11.08
2019-04-27T10:00:45.773Z,5.42
2019-04-27T10:03:20.371Z,8.95
2019-04-27T10:05:52.177Z,9.08
2019-04-27T10:08:24.001Z,7.60
2019-04-27T10:10:56.689Z,8.43
2019-04-27T10:13:29.744Z,7.20
2019-04-27T10:16:01.948Z,8.03
2019-04-27T10:18:33.776Z,11.35
2019-04-27T10:21:06.384Z,8.15
2019-04-27T10:23:38.437Z,6.85
2019-04-27T10:26:10.391Z,7.42
2019-04-27T10:28:42.257Z,8.83
2019-04-27T10:31:14.106Z,12.20
2019-04-27T10:33:46.411Z,7.78
2019-04-27T10:36:20.374Z,7.40
2019-04-27T10:38:52.487Z,7.95
2019-04-27T10:41:25.925Z,7.15
2019-04-27T10:44:00.869Z,6.95
2019-04-27T10:46:32.767Z,6.95
2019-04-27T10:49:05.905Z,4.55
2019-04-27T10:51:37.754Z,6.75
2019-04-27T10:54:09.626Z,5.78
2019-04-27T10:56:41.444Z,6.47
2019-04-27T10:59:36.004Z,7.17
2019-04-27T11:02:07.999Z,7.80
2019-04-27T11:05:04.591Z,6.87
2019-04-27T11:07:38.887Z,10.28
2019-04-27T11:10:10.862Z,7.12
2019-04-27T11:12:42.642Z,7.12
2019-04-27T11:15:16.225Z,10.08
2019-04-27T11:17:47.890Z,5.83
2019-04-27T11:20:20.449Z,8.98
2019-04-27T11:22:52.208Z,6.67
2019-04-27T11:25:24.088Z,8.28
2019-04-27T11:27:57.905Z,6.60
2019-04-27T11:30:29.551Z,7.75
2019-04-27T11:33:01.305Z,6.42
2019-04-27T11:35:48.735Z,9.40
2019-04-27T11:38:20.508Z,8.83
2019-04-27T11:40:56.672Z,9.10
2019-04-27T11:43:28.614Z,5.97
2019-04-27T11:46:01.335Z,16.12
2019-04-27T11:48:33.063Z,9.18
2019-04-27T11:51:04.854Z,9.88
2019-04-27T11:53:36.816Z,8.68
2019-04-27T11:56:08.763Z,9.60
2019-04-27T11:58:40.670Z,11.53
2019-04-27T12:01:12.536Z,9.10
2019-04-27T12:03:44.404Z,10.43
2019-04-27T12:06:16.894Z,8.00
2019-04-27T12:08:48.818Z,12.23
2019-04-27T12:11:23.118Z,11.68
2019-04-27T12:13:56.161Z,9.83
2019-04-27T12:16:28.512Z,9.38
2019-04-27T12:19:00.565Z,12.53
2019-04-27T12:21:32.852Z,9.90
2019-04-27T12:24:09.385Z,9.55
2019-04-27T12:27:03.082Z,8.03
2019-04-27T12:29:52.048Z,9.95
2019-04-27T12:32:25.712Z,12.07
2019-04-27T12:34:57.542Z,8.65
2019-04-27T12:37:29.485Z,9.40
2019-04-27T12:40:01.517Z,9.93
2019-04-27T12:42:36.668Z,8.53
2019-04-27T12:45:08.774Z,9.00
2019-04-27T12:47:41.858Z,10.70
2019-04-27T12:50:13.824Z,11.33
2019-04-27T12:52:47.701Z,8.85
2019-04-27T12:55:28.393Z,8.73
2019-04-27T12:58:30.887Z,7.95
2019-04-27T13:01:07.284Z,8.63
2019-04-27T13:03:37.723Z,6.70
2019-04-27T13:06:09.507Z,9.03
2019-04-27T13:08:41.231Z,6.72
2019-04-27T13:11:13.034Z,6.20
2019-04-27T13:13:44.768Z,9.33
2019-04-27T13:16:16.768Z,5.72
2019-04-27T13:18:48.498Z,6.87
2019-04-27T13:21:23.125Z,7.15
2019-04-27T13:24:03.624Z,5.83
2019-04-27T13:26:31.237Z,5.58
2019-04-27T13:29:06.767Z,5.95
2019-04-27T13:31:40.534Z,9.05
2019-04-27T13:34:12.295Z,7.20
2019-04-27T13:36:45.688Z,6.45
2019-04-27T13:39:18.095Z,6.10
2019-04-27T13:41:50.109Z,8.45
2019-04-27T13:44:21.994Z,6.78
2019-04-27T13:47:12.232Z,4.03
2019-04-27T13:49:58.887Z,6.12
2019-04-27T13:52:32.249Z,7.58
2019-04-27T13:55:05.706Z,5.95
2019-04-27T13:57:49.733Z,7.05
2019-04-27T14:00:13.329Z,6.62
2019-04-27T14:02:45.063Z,7.42
2019-04-27T14:05:18.049Z,7.37
2019-04-27T14:07:51.805Z,7.42
2019-04-27T14:10:23.511Z,8.40
2019-04-27T14:12:55.417Z,6.35
2019-04-27T14:15:28.903Z,4.92
2019-04-27T14:18:00.899Z,3.75
2019-04-27T14:20:33.889Z,6.50
2019-04-27T14:23:14.582Z,7.67
2019-04-27T14:25:46.794Z,6.40
2019-04-27T14:28:18.601Z,7.28
2019-04-27T14:30:50.396Z,5.42
2019-04-27T14:33:22.151Z,5.30
2019-04-27T14:35:54.235Z,5.42
2019-04-27T14:38:29.646Z,4.72
2019-04-27T14:41:03.062Z,4.30
2019-04-27T14:43:39.564Z,6.62
2019-04-27T14:46:13.738Z,5.20
2019-04-27T14:48:45.666Z,4.40
2019-04-27T14:51:20.480Z,4.40
2019-04-27T14:53:52.245Z,4.42
2019-04-27T14:56:24.992Z,6.40
2019-04-27T14:58:58.658Z,5.17
2019-04-27T15:01:30.737Z,3.47
2019-04-27T15:04:09.994Z,4.30
2019-04-27T15:06:41.734Z,4.87
2019-04-27T15:09:17.385Z,7.28
2019-04-27T15:11:49.259Z,4.90
2019-04-27T15:14:23.824Z,4.97
2019-04-27T15:16:56.368Z,4.97
2019-04-27T15:19:33.856Z,8.38
2019-04-27T15:22:07.436Z,6.03
2019-04-27T15:24:41.694Z,8.83
2019-04-27T15:27:16.033Z,7.03
2019-04-27T15:29:47.829Z,4.78
2019-04-27T15:32:27.957Z,6.25
2019-04-27T15:35:18.929Z,6.53
2019-04-27T15:38:05.068Z,8.13
2019-04-27T15:40:54.445Z,9.33
2019-04-27T15:43:30.856Z,7.12
2019-04-27T15:46:02.850Z,7.35
2019-04-27T15:48:34.692Z,8.15
2019-04-27T15:51:16.434Z,10.08
2019-04-27T15:53:41.541Z,6.17
2019-04-27T15:56:13.503Z,7.90
2019-04-27T15:58:45.227Z,4.65
2019-04-27T16:01:18.042Z,9.20
2019-04-27T16:03:52.142Z,5.08
2019-04-27T16:06:24.044Z,6.37
2019-04-27T16:08:55.792Z,6.12
2019-04-27T16:11:27.582Z,7.58
2019-04-27T16:14:06.610Z,11.08
2019-04-27T16:16:38.193Z,8.10
2019-04-27T16:19:11.636Z,7.15
2019-04-27T16:21:47.725Z,8.50
2019-04-27T16:24:21.203Z,11.35
2019-04-27T16:26:56.032Z,7.50
2019-04-27T16:29:28.079Z,6.42
2019-04-27T16:32:02.921Z,7.10
2019-04-27T16:34:38.846Z,9.65
2019-04-27T16:37:14.078Z,8.38
2019-04-27T16:39:47.868Z,6.90
2019-04-27T16:42:20.190Z,5.72
2019-04-27T16:44:53.231Z,6.12
2019-04-27T16:47:25.402Z,7.25
2019-04-27T16:49:58.620Z,6.55
2019-04-27T16:52:31.724Z,5.85
2019-04-27T16:55:03.482Z,6.10
2019-04-27T16:57:37.394Z,7.28
2019-04-27T17:00:12.107Z,7.80
2019-04-27T17:02:45.347Z,11.18
2019-04-27T17:05:17.855Z,8.45
2019-04-27T17:07:49.843Z,4.90
2019-04-27T17:10:25.781Z,11.50
2019-04-27T17:12:55.331Z,10.48
2019-04-27T17:15:46.281Z,5.50
2019-04-27T17:18:28.532Z,9.78
2019-04-27T17:21:15.860Z,8.20
2019-04-27T17:23:35.053Z,8.00
2019-04-27T17:26:20.533Z,11.28
2019-04-27T17:28:45.384Z,9.05
2019-04-27T17:31:21.412Z,9.00
2019-04-27T17:34:00.494Z,11.35
2019-04-27T17:36:33.440Z,9.90
2019-04-27T17:39:09.581Z,10.25
2019-04-27T17:41:41.734Z,8.45
2019-04-27T17:44:19.123Z,12.45
2019-04-27T17:46:51.179Z,6.95
2019-04-27T17:49:22.311Z,11.10
2019-04-27T17:51:55.219Z,7.85
2019-04-27T17:54:29.044Z,7.85
2019-04-27T17:57:01.315Z,13.30
2019-04-27T17:59:37.470Z,11.45
2019-04-27T18:02:09.686Z,7.12
2019-04-27T18:04:41.515Z,10.63
2019-04-27T18:07:14.959Z,10.60
2019-04-27T18:09:48.793Z,7.47
2019-04-27T18:12:20.599Z,9.00
2019-04-27T18:14:55.493Z,9.68
2019-04-27T18:17:34.381Z,12.88
2019-04-27T18:20:12.023Z,10.72
2019-04-27T18:22:49.500Z,9.35
2019-04-27T18:25:22.131Z,14.75
2019-04-27T18:28:14.707Z,11.93
2019-04-27T18:31:00.831Z,8.28
2019-04-27T18:33:37.020Z,13.13
2019-04-27T18:36:11.557Z,11.12
2019-04-27T18:38:39.734Z,17.92
2019-04-27T18:41:12.863Z,13.48
2019-04-27T18:43:51.092Z,10.00
2019-04-27T18:46:24.436Z,15.72
2019-04-27T18:49:13.688Z,13.72
2019-04-27T18:52:06.481Z,11.83
2019-04-27T18:54:41.935Z,12.23
2019-04-27T18:57:15.173Z,13.70
2019-04-27T18:59:48.233Z,9.78
2019-04-27T19:02:22.341Z,10.60
2019-04-27T19:04:54.475Z,13.20
2019-04-27T19:07:26.305Z,19.25
2019-04-27T19:09:59.179Z,10.23
2019-04-27T19:12:31.200Z,15.35
2019-04-27T19:15:03.468Z,11.43
2019-04-27T19:17:35.920Z,13.88
2019-04-27T19:20:10.082Z,12.05
2019-04-27T19:22:42.020Z,12.85
2019-04-27T19:25:18.816Z,17.52
2019-04-27T19:28:28.607Z,13.95
2019-04-27T19:31:04.328Z,15.60
2019-04-27T19:33:39.618Z,15.03
2019-04-27T19:36:11.455Z,12.53
2019-04-27T19:38:44.212Z,10.05
2019-04-27T19:41:16.116Z,17.07
2019-04-27T19:43:48.811Z,16.10
2019-04-27T19:46:20.654Z,14.70
2019-04-27T19:48:52.563Z,16.07
2019-04-27T19:51:24.372Z,21.80
2019-04-27T19:53:58.198Z,18.00
2019-04-27T19:56:31.481Z,22.37
2019-04-27T19:59:08.822Z,30.82
2019-04-27T20:01:44.006Z,12.33
2019-04-27T20:04:28.415Z,12.95
2019-04-27T20:07:00.418Z,12.73
2019-04-27T20:09:44.534Z,8.75
2019-04-27T20:12:16.713Z,12.13
2019-04-27T20:14:57.603Z,15.40
2019-04-27T20:17:32.542Z,11.22
2019-04-27T20:20:04.620Z,11.75
2019-04-27T20:22:36.830Z,17.45
2019-04-27T20:25:08.993Z,17.90
2019-04-27T20:27:48.327Z,13.50
2019-04-27T20:30:14.924Z,14.70
2019-04-27T20:32:46.922Z,14.33
2019-04-27T20:35:19.473Z,9.58
2019-04-27T20:38:13.408Z,13.08
2019-04-27T20:41:01.362Z,13.15
2019-04-27T20:43:34.322Z,11.35
2019-04-27T20:46:06.388Z,12.78
2019-04-27T20:48:38.571Z,14.68
2019-04-27T20:51:11.496Z,19.02
2019-04-27T20:53:47.940Z,15.25
2019-04-27T20:56:19.801Z,9.70
2019-04-27T20:58:51.747Z,14.55
2019-04-27T21:01:23.962Z,17.00
2019-04-27T21:03:58.092Z,17.90
2019-04-27T21:06:34.112Z,15.55
2019-04-27T21:09:12.712Z,20.92
2019-04-27T21:11:49.416Z,26.27
2019-04-27T21:14:31.660Z,13.65
2019-04-27T21:17:03.640Z,17.73
2019-04-27T21:19:35.542Z,19.12
2019-04-27T21:22:07.566Z,18.25
2019-04-27T21:24:41.329Z,20.43
2019-04-27T21:27:16.102Z,13.28
2019-04-27T21:29:48.776Z,15.08
2019-04-27T21:32:20.818Z,15.60
2019-04-27T21:34:52.661Z,17.12
2019-04-27T21:37:25.217Z,16.82
2019-04-27T21:40:31.468Z,16.10
2019-04-27T21:43:05.087Z,18.55
2019-04-27T21:45:38.439Z,14.80
2019-04-27T21:48:11.053Z,17.77
2019-04-27T21:50:44.667Z,13.15
2019-04-27T21:53:35.312Z,20.50
2019-04-27T21:56:11.269Z,24.18
2019-04-27T21:58:43.134Z,15.45
2019-04-27T22:01:27.869Z,14.25
2019-04-27T22:04:07.369Z,20.10
2019-04-27T22:06:51.089Z,25.82
2019-04-27T22:09:23.330Z,16.75
2019-04-27T22:11:55.299Z,18.60
2019-04-27T22:14:27.275Z,19.07
2019-04-27T22:17:00.852Z,22.70
2019-04-27T22:19:34.444Z,19.70
2019-04-27T22:22:12.583Z,19.70
2019-04-27T22:24:44.471Z,24.47
2019-04-27T22:27:16.339Z,20.90
2019-04-27T22:29:48.159Z,21.25
2019-04-27T22:32:20.637Z,13.83
2019-04-27T22:34:52.488Z,20.10
2019-04-27T22:37:24.290Z,21.45
2019-04-27T22:40:21.486Z,17.07
2019-04-27T22:43:18.435Z,17.87
2019-04-27T22:45:51.072Z,22.55
2019-04-27T22:48:24.126Z,18.73
2019-04-27T22:50:55.886Z,23.67
2019-04-27T22:53:27.678Z,21.65
2019-04-27T22:56:18.194Z,19.85
2019-04-27T22:59:15.229Z,29.98
2019-04-27T23:02:12.108Z,35.80
2019-04-27T23:04:51.618Z,38.78
2019-04-27T23:07:25.213Z,40.20
2019-04-27T23:09:56.925Z,33.85
2019-04-27T23:12:28.819Z,29.12
2019-04-27T23:15:00.612Z,22.35
2019-04-27T23:17:51.765Z,31.12
2019-04-27T23:20:24.123Z,25.70
2019-04-27T23:22:56.032Z,27.48
2019-04-27T23:25:27.943Z,27.85
2019-04-27T23:27:59.826Z,23.77
2019-04-27T23:30:50.442Z,23.98
2019-04-27T23:33:22.393Z,22.17
2019-04-27T23:35:54.245Z,24.02
2019-04-27T23:38:26.017Z,24.10
2019-04-27T23:40:57.819Z,27.13
2019-04-27T23:43:29.832Z,29.75
2019-04-27T23:46:02.145Z,25.97
2019-04-27T23:48:34.005Z,25.00
2019-04-27T23:51:17.548Z,31.02
2019-04-27T23:53:49.442Z,23.38
2019-04-27T23:56:22.579Z,23.75
2019-04-27T23:58:56.281Z,27.02
